Nearby METAR Reports

 

KSJC - San Jose, California, USA
Distance from station: NØ 14km
Oppdatert: 09/12/2019 16:53
Overskyet
Overskyet
 Vind fra SV
Vind: SV 7 km/h
Temperatur: 11°C
Duggpunkt: 10°C
Fuktighet: 94%
Barometer: 1022 hPa
Clouds: Overskyet
Visibility: 11 km
Cloud details: Few Clouds 30 m
Hovedsaklig skyet 335 m
Overskyet 457 m
2019/12/09 15:53 KSJC 091553Z 23004KT 7SM FEW001 BKN011 OVC015 11/10 A3018 RMK AO2 SLP220 T01110100
KNUQ - Moffett Nas/Mtn, California, USA
Distance from station: N 14km
Oppdatert: 21/11/2019 17:56
NOT Current

 
Barometer: 1011.2 hPa
2019/11/21 16:56 KNUQ 211656Z AUTO A2986 RMK AO2 SLP116 PWINO $
 
KPAO - Palo Alto, California, USA
Distance from station: NNV 23km
Oppdatert: 09/12/2019 16:57
Mist, Overskyet
Mist, Overskyet
 Vind fra varies
Vind: varies 7 km/h
Temperatur: 11°C
Duggpunkt: 10°C
Fuktighet: 94%
Barometer: 1022.7 hPa
Oversikt: Mist
Clouds: Overskyet
Visibility: 3 km
Cloud details: Overskyet 213 m
2019/12/09 15:57 KPAO 091557Z VRB04KT 2SM BR OVC007 11/10 A3020
KRHV - San Jose/Reid, California, USA
Distance from station: ØNØ 19km
Oppdatert: 09/12/2019 15:47
NOT Current
Mist, Overskyet
Mist, Overskyet
 Vind fra calm
Vind: Stille
Temperatur: 12°C
Duggpunkt: 9°C
Fuktighet: 82%
Barometer: 1022 hPa
Oversikt: Mist
Clouds: Overskyet
Visibility: 8 km
Cloud details: Overskyet 457 m
2019/12/09 14:47 KRHV 091447Z 00000KT 5SM BR OVC015 12/09 A3018
 
KOAK - Oakland, California, USA
Distance from station: NNV 50km
Oppdatert: 09/12/2019 16:53
Tåke, Overskyet
Tåke, Overskyet
 Vind fra calm
Vind: Stille
Temperatur: 11°C
Duggpunkt: 9°C
Fuktighet: 88%
Barometer: 1022.7 hPa
Oversikt: Tåke
Clouds: Overskyet
Visibility: 0.2 km
Cloud details: Overskyet 91 m
2019/12/09 15:53 KOAK 091553Z 00000KT 1/8SM FG VV003 11/09 A3020 RMK AO2 SFC VIS 1/2 SLP226 T01060094
KSQL - San Carlos Airpo, California, USA
Distance from station: NV 34km
Oppdatert: 09/12/2019 15:55
Tåke, Overskyet
Tåke, Overskyet
 Vind fra calm
Vind: Stille
Temperatur: 10°C
Duggpunkt: 10°C
Fuktighet: 100%
Barometer: 1022.4 hPa
Oversikt: Tåke
Clouds: Overskyet
Visibility: 0.8 km
Cloud details: Overskyet 91 m
2019/12/09 14:55 KSQL 091455Z AUTO 00000KT 1/2SM FG OVC003 10/10 A3019 RMK AO2
 
KSFO - San Francisco, California, USA
Distance from station: NV 49km
Oppdatert: 09/12/2019 16:56
Tåke, Overskyet
Tåke, Overskyet
 Vind fra SØ
Vind: SØ 7 km/h
Temperatur: 10°C
Wind Chill: 9°C
Duggpunkt: 9°C
Fuktighet: 94%
Barometer: 1022 hPa
Oversikt: Tåke
Clouds: Overskyet
Visibility: 0.8 km
Cloud details: Overskyet 30 m
2019/12/09 15:56 KSFO 091556Z 13004KT 1/2SM R28R/P6000FT FG OVC001 10/09 A3018 RMK AO2 SLP221 T01000094
KE16 - San Martin, California, USA
Distance from station: ØSØ 43km
Oppdatert: 14/11/2019 10:35
NOT Current
Overskyet
Overskyet
 Vind fra SØ
Vind: SØ 11 km/h
Temperatur: 12°C
Duggpunkt: 10°C
Fuktighet: 88%
Barometer: 1017.6 hPa
Clouds: Overskyet
Visibility: 16 km
Cloud details: Overskyet 427 m
2019/11/14 09:35 KE16 140935Z AUTO 13006KT 10SM OVC014 12/10 A3005 RMK AO2
 
KWVI - Watsonville, California, USA
Distance from station: SSØ 44km
Oppdatert: 09/12/2019 16:53
Overskyet
Overskyet
 Vind fra calm
Vind: Stille
Temperatur: 9°C
Duggpunkt: 8°C
Fuktighet: 94%
Barometer: 1022.4 hPa
Clouds: Overskyet
Visibility: 16 km
Cloud details: Overskyet 427 m
2019/12/09 15:53 KWVI 091553Z AUTO 00000KT 10SM OVC014 09/08 A3019 RMK AO2 SLP222 T00890083
KHAF - Half Moon Bay, California, USA
Distance from station: VNV 50km
Oppdatert: 09/12/2019 17:00
Mist, Overskyet
Mist, Overskyet
 Vind fra ØNØ
Vind: ØNØ 7 km/h
Temperatur: 10°C
Wind Chill: 9°C
Duggpunkt: 10°C
Fuktighet: 100%
Barometer: 1022.4 hPa
Oversikt: Mist
Clouds: Overskyet
Visibility: 10 km
Cloud details: Few Clouds 244 m
Overskyet 518 m
2019/12/09 16:00 KHAF 091600Z AUTO 06004KT 6SM BR FEW008 OVC017 10/10 A3019 RMK AO2
 
KHWD - Hayward, California, USA
Distance from station: N 44km
Oppdatert: 09/12/2019 16:54
Tåke, Overskyet
Tåke, Overskyet
 Vind fra calm
Vind: Stille
Temperatur: 10°C
Duggpunkt: 10°C
Fuktighet: 100%
Barometer: 1022.4 hPa
Oversikt: Tåke
Clouds: Overskyet
Visibility: 0.8 km
Cloud details: Overskyet 91 m
2019/12/09 15:54 KHWD 091554Z 00000KT 1/2SM FG VV003 10/10 A3019 RMK AO2 SLP233 T01000100
KLVK - Livermore, California, USA
Distance from station: NNØ 51km
Oppdatert: 09/12/2019 16:53
Tåke, Overskyet
Tåke, Overskyet
 Vind fra calm
Vind: Stille
Temperatur: 8°C
Duggpunkt: 8°C
Fuktighet: 100%
Barometer: 1022 hPa
Oversikt: Tåke
Clouds: Overskyet
Visibility: 0.4 km
Cloud details: Overskyet 61 m
2019/12/09 15:53 KLVK 091553Z 00000KT M1/4SM FG VV002 08/08 A3018 RMK AO2 SLP220 T00780078